createdAt,value
2024-02-23T00:00:09.345Z,0.30
2024-02-23T00:05:31.316Z,0.22
2024-02-23T00:10:53.273Z,0.28
2024-02-23T00:16:15.261Z,0.38
2024-02-23T00:21:41.105Z,0.55
2024-02-23T00:27:03.350Z,0.40
2024-02-23T00:32:25.266Z,0.40
2024-02-23T00:37:47.230Z,0.40
2024-02-23T00:43:09.229Z,0.40
2024-02-23T00:48:31.418Z,0.20
2024-02-23T00:53:53.734Z,0.40
2024-02-23T00:59:15.797Z,0.28
2024-02-23T01:04:37.619Z,0.30
2024-02-23T01:10:00.358Z,0.32
2024-02-23T01:15:22.353Z,0.40
2024-02-23T01:20:44.530Z,0.40
2024-02-23T01:26:06.717Z,0.40
2024-02-23T01:31:28.744Z,0.40
2024-02-23T01:36:50.677Z,0.60
2024-02-23T01:42:12.515Z,0.28
2024-02-23T01:47:34.710Z,0.43
2024-02-23T01:53:01.642Z,0.20
2024-02-23T01:58:23.786Z,0.50
2024-02-23T02:03:45.953Z,0.30
2024-02-23T02:09:08.038Z,0.30
2024-02-23T02:14:32.807Z,0.52
2024-02-23T02:19:55.885Z,0.40
2024-02-23T02:25:17.834Z,0.30
2024-02-23T02:30:39.739Z,0.30
2024-02-23T02:36:01.750Z,0.30
2024-02-23T02:41:25.900Z,0.20
2024-02-23T02:46:47.983Z,0.20
2024-02-23T02:52:10.110Z,0.30
2024-02-23T02:57:31.979Z,0.15
2024-02-23T03:02:54.387Z,0.10
2024-02-23T03:08:16.393Z,0.30
2024-02-23T03:13:38.275Z,0.30
2024-02-23T03:19:00.172Z,0.50
2024-02-23T03:24:22.199Z,0.25
2024-02-23T03:29:44.122Z,0.30
2024-02-23T03:35:08.380Z,0.45
2024-02-23T03:40:30.234Z,0.50
2024-02-23T03:45:52.131Z,0.70
2024-02-23T03:51:14.151Z,0.40
2024-02-23T03:56:43.212Z,0.70
2024-02-23T04:02:05.848Z,0.60
2024-02-23T04:07:27.780Z,0.68
2024-02-23T04:12:49.788Z,0.25
2024-02-23T04:18:11.738Z,0.65
2024-02-23T04:23:33.675Z,0.60
2024-02-23T04:28:55.677Z,0.50
2024-02-23T04:34:17.878Z,0.52
2024-02-23T04:39:43.087Z,0.50
2024-02-23T04:45:05.545Z,0.95
2024-02-23T04:50:27.638Z,0.70
2024-02-23T04:55:49.608Z,0.70
2024-02-23T05:01:12.192Z,0.65
2024-02-23T05:06:34.424Z,0.77
2024-02-23T05:11:56.621Z,0.77
2024-02-23T05:17:19.013Z,0.60
2024-02-23T05:22:41.856Z,0.70
2024-02-23T05:28:04.232Z,0.73
2024-02-23T05:33:26.686Z,0.50
2024-02-23T05:38:48.602Z,0.60
2024-02-23T05:44:10.706Z,0.50
2024-02-23T05:49:32.784Z,0.60
2024-02-23T05:54:57.302Z,0.80
2024-02-23T06:00:22.992Z,0.88
2024-02-23T06:11:07.108Z,0.60
2024-02-23T06:16:29.700Z,0.70
2024-02-23T06:21:51.552Z,0.70
2024-02-23T06:27:13.457Z,0.73
2024-02-23T06:32:35.916Z,0.80
2024-02-23T06:37:58.242Z,0.55
2024-02-23T06:43:23.159Z,0.80
2024-02-23T06:48:47.259Z,0.60
2024-02-23T06:54:09.851Z,0.98
2024-02-23T06:59:31.906Z,0.98
2024-02-23T07:04:56.102Z,1.00
2024-02-23T07:10:19.539Z,0.70
2024-02-23T07:15:41.420Z,0.82
2024-02-23T07:21:03.359Z,0.80
2024-02-23T07:26:25.487Z,1.00
2024-02-23T07:31:47.471Z,1.00
2024-02-23T07:37:10.719Z,0.65
2024-02-23T07:42:33.784Z,0.70
2024-02-23T07:47:55.881Z,0.90
2024-02-23T07:53:17.798Z,0.70
2024-02-23T07:58:39.710Z,0.85
2024-02-23T08:04:01.624Z,0.85
2024-02-23T08:09:24.194Z,1.15
2024-02-23T08:14:47.041Z,0.68
2024-02-23T08:20:09.777Z,0.70
2024-02-23T08:25:31.795Z,0.60
2024-02-23T08:30:54.583Z,0.50
2024-02-23T08:36:19.692Z,0.60
2024-02-23T08:41:41.674Z,0.90
2024-02-23T08:47:04.037Z,0.73
2024-02-23T08:52:26.871Z,0.73
2024-02-23T08:57:49.185Z,0.90
2024-02-23T09:03:11.130Z,0.68
2024-02-23T09:08:33.091Z,0.93
2024-02-23T09:13:55.188Z,0.80
2024-02-23T09:19:17.819Z,0.90
2024-02-23T09:24:43.211Z,0.88
2024-02-23T09:30:05.907Z,0.60
2024-02-23T09:35:28.152Z,0.90
2024-02-23T09:40:51.204Z,0.80
2024-02-23T09:46:13.980Z,0.50
2024-02-23T09:51:37.557Z,0.70
2024-02-23T09:56:59.537Z,0.52
2024-02-23T10:02:22.360Z,0.50
2024-02-23T10:07:45.812Z,1.00
2024-02-23T10:13:07.832Z,0.88
2024-02-23T10:18:29.958Z,0.60
2024-02-23T10:23:52.788Z,0.65
2024-02-23T10:29:17.468Z,0.77
2024-02-23T10:34:45.311Z,0.90
2024-02-23T10:40:10.732Z,0.70
2024-02-23T10:45:33.232Z,1.13
2024-02-23T10:50:56.594Z,0.65
2024-02-23T10:56:18.727Z,0.73
2024-02-23T11:01:41.634Z,0.82
2024-02-23T11:07:09.050Z,0.88
2024-02-23T11:12:31.386Z,0.65
2024-02-23T11:17:53.365Z,0.95
2024-02-23T11:23:16.679Z,0.90
2024-02-23T11:28:45.471Z,0.45
2024-02-23T11:34:10.003Z,0.50
2024-02-23T11:39:32.350Z,0.68
2024-02-23T11:44:57.270Z,0.80
2024-02-23T11:50:22.245Z,0.93
2024-02-23T11:55:44.549Z,0.73
2024-02-23T12:01:08.384Z,0.82
2024-02-23T12:06:32.189Z,0.80
2024-02-23T12:11:54.903Z,0.43
2024-02-23T12:17:16.870Z,0.70
2024-02-23T12:22:38.762Z,0.80
2024-02-23T12:28:01.650Z,0.85
2024-02-23T12:33:23.704Z,0.80
2024-02-23T12:38:45.819Z,0.70
2024-02-23T12:44:07.878Z,0.88
2024-02-23T12:49:29.935Z,0.75
2024-02-23T12:54:52.864Z,1.20
2024-02-23T13:00:15.680Z,0.75
2024-02-23T13:05:37.606Z,1.15
2024-02-23T13:10:59.641Z,0.98
2024-02-23T13:16:21.713Z,0.75
2024-02-23T13:21:43.880Z,0.68
2024-02-23T13:27:06.004Z,0.77
2024-02-23T13:32:28.133Z,0.80
2024-02-23T13:37:50.851Z,0.82
2024-02-23T13:43:13.869Z,0.60
2024-02-23T13:48:38.226Z,0.70
2024-02-23T13:54:00.528Z,0.60
2024-02-23T13:59:22.912Z,0.70
2024-02-23T14:04:46.669Z,0.70
2024-02-23T14:10:09.450Z,0.60
2024-02-23T14:15:31.382Z,0.77
2024-02-23T14:20:53.910Z,0.90
2024-02-23T14:26:16.084Z,0.80
2024-02-23T14:31:37.983Z,0.85
2024-02-23T14:36:59.874Z,0.82
2024-02-23T14:42:21.799Z,0.50
2024-02-23T14:47:46.563Z,0.50
2024-02-23T14:53:10.093Z,0.50
2024-02-23T14:58:32.098Z,0.57
2024-02-23T15:03:54.079Z,0.88
2024-02-23T15:09:16.217Z,0.50
2024-02-23T15:14:38.375Z,0.40
2024-02-23T15:20:00.472Z,0.60
2024-02-23T15:25:22.593Z,0.47
2024-02-23T15:30:44.624Z,0.75
2024-02-23T15:36:10.124Z,0.60
2024-02-23T15:41:33.163Z,0.38
2024-02-23T15:46:55.221Z,0.65
2024-02-23T15:52:17.457Z,0.68
2024-02-23T15:57:40.505Z,0.43
2024-02-23T16:03:02.455Z,0.60
2024-02-23T16:08:42.815Z,0.45
2024-02-23T16:14:06.499Z,0.63
2024-02-23T16:19:28.414Z,0.30
2024-02-23T16:24:50.386Z,0.40
2024-02-23T16:30:12.744Z,0.50
2024-02-23T16:35:34.691Z,0.50
2024-02-23T16:40:56.787Z,0.50
2024-02-23T16:46:18.927Z,0.75
2024-02-23T16:51:41.458Z,0.45
2024-02-23T16:57:03.404Z,1.10
2024-02-23T17:02:25.298Z,0.75
2024-02-23T17:07:47.148Z,0.90
2024-02-23T17:13:09.015Z,0.90
2024-02-23T17:18:30.917Z,10.73
2024-02-23T17:23:52.934Z,8.77
2024-02-23T17:29:14.829Z,9.20
2024-02-23T17:34:37.035Z,7.95
2024-02-23T17:39:59.010Z,8.70
2024-02-23T17:45:20.899Z,8.20
2024-02-23T17:50:42.888Z,8.50
2024-02-23T17:56:05.307Z,11.43
2024-02-23T18:01:27.345Z,12.02
2024-02-23T18:06:51.880Z,13.45
2024-02-23T18:12:13.879Z,13.38
2024-02-23T18:17:35.882Z,13.93
2024-02-23T18:23:00.882Z,12.77
2024-02-23T18:28:23.274Z,12.73
2024-02-23T18:33:45.509Z,12.23
2024-02-23T18:39:08.679Z,11.00
2024-02-23T18:44:30.668Z,10.38
2024-02-23T18:49:52.719Z,10.18
2024-02-23T18:55:14.629Z,10.45
2024-02-23T19:00:36.582Z,8.70
2024-02-23T19:05:58.581Z,7.53
2024-02-23T19:11:20.676Z,7.82
2024-02-23T19:16:44.529Z,7.00
2024-02-23T19:22:06.625Z,6.93
2024-02-23T19:27:28.531Z,5.72
2024-02-23T19:32:50.671Z,6.07
2024-02-23T19:38:12.640Z,6.28
2024-02-23T19:43:34.532Z,5.32
2024-02-23T19:48:57.200Z,5.00
2024-02-23T19:54:19.079Z,4.30
2024-02-23T19:59:41.536Z,4.05
2024-02-23T20:05:04.777Z,4.22
2024-02-23T20:10:26.962Z,4.75
2024-02-23T20:15:49.259Z,3.28
2024-02-23T20:21:11.155Z,2.72
2024-02-23T20:26:33.176Z,2.70
2024-02-23T20:31:55.892Z,2.45
2024-02-23T20:37:17.973Z,2.22
2024-02-23T20:42:40.394Z,2.03
2024-02-23T20:48:02.403Z,2.10
2024-02-23T20:53:24.411Z,1.63
2024-02-23T20:58:46.450Z,1.90
2024-02-23T21:04:08.317Z,2.20
2024-02-23T21:09:30.206Z,1.50
2024-02-23T21:14:53.101Z,1.58
2024-02-23T21:20:15.197Z,1.38
2024-02-23T21:25:37.422Z,1.48
2024-02-23T21:31:05.324Z,1.55
2024-02-23T21:36:27.415Z,1.48
2024-02-23T21:41:49.542Z,1.17
2024-02-23T21:47:11.568Z,1.15
2024-02-23T21:52:35.810Z,0.90
2024-02-23T21:57:57.768Z,1.30
2024-02-23T22:03:20.738Z,0.95
2024-02-23T22:08:42.673Z,0.90
2024-02-23T22:14:04.913Z,0.88
2024-02-23T22:19:27.122Z,0.95
2024-02-23T22:24:49.365Z,0.70
2024-02-23T22:30:13.862Z,0.85
2024-02-23T22:35:35.860Z,1.30
2024-02-23T22:40:57.765Z,1.25
2024-02-23T22:46:19.633Z,1.02
2024-02-23T22:51:43.732Z,1.13
2024-02-23T22:57:05.959Z,0.77
2024-02-23T23:02:28.341Z,0.65
2024-02-23T23:07:50.314Z,0.65
2024-02-23T23:13:12.416Z,0.70
2024-02-23T23:18:34.477Z,0.77
2024-02-23T23:23:56.417Z,0.63
2024-02-23T23:29:18.336Z,0.90
2024-02-23T23:34:43.271Z,0.77
2024-02-23T23:40:05.610Z,0.50
2024-02-23T23:45:27.528Z,0.73
2024-02-23T23:50:49.526Z,0.50
2024-02-23T23:56:14.536Z,0.60
